createdAt,value
2023-04-01T00:01:55.395Z,98785.06
2023-04-01T00:03:58.838Z,98788.50
2023-04-01T00:06:02.899Z,98778.97
2023-04-01T00:08:06.928Z,98770.22
2023-04-01T00:10:12.752Z,98781.50
2023-04-01T00:12:17.574Z,98783.25
2023-04-01T00:14:21.007Z,98780.63
2023-04-01T00:16:24.490Z,98767.59
2023-04-01T00:18:28.075Z,98775.44
2023-04-01T00:20:31.720Z,98780.66
2023-04-01T00:22:35.713Z,98737.31
2023-04-01T00:24:39.525Z,98783.25
2023-04-01T00:26:43.397Z,98652.34
2023-04-01T00:28:48.837Z,98776.34
2023-04-01T00:30:52.421Z,98790.19
2023-04-01T00:32:56.141Z,98773.72
2023-04-01T00:35:00.491Z,98786.75
2023-04-01T00:37:03.829Z,98777.19
2023-04-01T00:39:07.230Z,98777.19
2023-04-01T00:41:15.121Z,98776.38
2023-04-01T00:43:21.980Z,98775.47
2023-04-01T00:45:31.899Z,98778.03
2023-04-01T00:47:35.512Z,98772.00
2023-04-01T00:49:42.826Z,98767.63
2023-04-01T00:51:49.864Z,98775.44
2023-04-01T00:53:56.643Z,98779.78
2023-04-01T00:56:04.950Z,98782.38
2023-04-01T00:58:13.919Z,98769.38
2023-04-01T01:00:19.428Z,98764.13
2023-04-01T01:02:25.084Z,98766.78
2023-04-01T01:04:30.267Z,98773.72
2023-04-01T01:06:45.241Z,98769.41
2023-04-01T01:09:04.694Z,98761.59
2023-04-01T01:11:12.670Z,98727.75
2023-04-01T01:13:22.646Z,98773.75
2023-04-01T01:15:29.369Z,98777.22
2023-04-01T01:17:46.323Z,98769.41
2023-04-01T01:20:22.690Z,98757.28
2023-04-01T01:22:46.749Z,98759.00
2023-04-01T01:25:10.901Z,98765.97
2023-04-01T01:27:18.036Z,98762.50
2023-04-01T01:29:44.578Z,98743.38
2023-04-01T01:31:59.390Z,98746.81
2023-04-01T01:34:19.327Z,98749.44
2023-04-01T01:36:28.341Z,98754.66
2023-04-01T01:38:35.954Z,98747.69
2023-04-01T01:40:44.340Z,98752.91
2023-04-01T01:42:51.613Z,98755.53
2023-04-01T01:44:58.020Z,98763.34
2023-04-01T01:47:02.661Z,98746.00
2023-04-01T01:49:08.932Z,98759.00
2023-04-01T01:51:12.619Z,98739.91
2023-04-01T01:53:18.333Z,98743.41
2023-04-01T01:55:30.419Z,98750.34
2023-04-01T01:57:38.763Z,98746.00
2023-04-01T01:59:49.549Z,98754.69
2023-04-01T02:02:01.466Z,98755.50
2023-04-01T02:04:06.288Z,98750.31
2023-04-01T02:06:16.063Z,98754.72
2023-04-01T02:08:24.798Z,98770.34
2023-04-01T02:10:30.808Z,98762.53
2023-04-01T02:12:37.226Z,98752.09
2023-04-01T02:14:45.994Z,98749.50
2023-04-01T02:16:55.777Z,98755.56
2023-04-01T02:19:01.761Z,98759.91
2023-04-01T02:21:06.613Z,98755.59
2023-04-01T02:23:11.831Z,98754.72
2023-04-01T02:25:20.582Z,98752.13
2023-04-01T02:27:24.025Z,98746.03
2023-04-01T02:29:27.927Z,98756.44
2023-04-01T02:31:32.107Z,98747.78
2023-04-01T02:33:36.053Z,98751.25
2023-04-01T02:35:39.695Z,98740.84
2023-04-01T02:37:45.893Z,98759.06
2023-04-01T02:39:49.279Z,98757.31
2023-04-01T02:41:54.677Z,98755.56
2023-04-01T02:43:59.474Z,98750.41
2023-04-01T02:46:03.029Z,98745.19
2023-04-01T02:48:07.362Z,98713.09
2023-04-01T02:50:11.581Z,98745.16
2023-04-01T02:52:15.287Z,98752.97
2023-04-01T02:54:18.704Z,98750.38
2023-04-01T02:56:22.322Z,98751.25
2023-04-01T02:58:27.262Z,98749.50
2023-04-01T03:00:30.939Z,98702.69
2023-04-01T03:02:34.345Z,98759.06
2023-04-01T03:04:37.770Z,98753.84
2023-04-01T03:06:41.212Z,98753.84
2023-04-01T03:08:45.303Z,98726.09
2023-04-01T03:10:48.913Z,98747.78
2023-04-01T03:12:52.231Z,98760.78
2023-04-01T03:14:56.951Z,98749.53
2023-04-01T03:17:14.720Z,98755.56
2023-04-01T03:19:18.123Z,98756.44
2023-04-01T03:21:23.459Z,98756.47
2023-04-01T03:23:27.019Z,98757.34
2023-04-01T03:25:31.729Z,98753.00
2023-04-01T03:27:36.516Z,98751.25
2023-04-01T03:29:39.911Z,98756.47
2023-04-01T03:31:44.852Z,98758.19
2023-04-01T03:33:48.305Z,98772.94
2023-04-01T03:35:53.106Z,98765.13
2023-04-01T03:37:56.984Z,98759.06
2023-04-01T03:40:00.440Z,98736.50
2023-04-01T03:42:03.759Z,98772.94
2023-04-01T03:44:07.189Z,98773.81
2023-04-01T03:46:11.467Z,98763.38
2023-04-01T03:48:17.044Z,98770.34
2023-04-01T03:50:20.585Z,98778.13
2023-04-01T03:52:23.974Z,98774.69
2023-04-01T03:54:27.389Z,98783.34
2023-04-01T03:56:30.677Z,98776.38
2023-04-01T03:58:34.033Z,98785.06
2023-04-01T04:00:39.131Z,98789.44
2023-04-01T04:02:43.098Z,98782.47
2023-04-01T04:04:50.166Z,98776.41
2023-04-01T04:06:53.625Z,98772.94
2023-04-01T04:08:59.371Z,98779.00
2023-04-01T04:11:04.429Z,98772.03
2023-04-01T04:13:07.842Z,98781.63
2023-04-01T04:15:20.271Z,98779.00
2023-04-01T04:17:25.805Z,98783.34
2023-04-01T04:19:34.733Z,98772.06
2023-04-01T04:21:43.969Z,98727.84
2023-04-01T04:23:47.533Z,98787.69
2023-04-01T04:25:58.808Z,98768.59
2023-04-01T04:28:03.177Z,98783.34
2023-04-01T04:30:09.385Z,98801.56
2023-04-01T04:32:14.125Z,98779.88
2023-04-01T04:34:19.236Z,98772.06
2023-04-01T04:36:27.017Z,98786.81
2023-04-01T04:38:36.420Z,98785.09
2023-04-01T04:40:43.488Z,98786.78
2023-04-01T04:42:48.521Z,98779.88
2023-04-01T04:44:57.288Z,98778.13
2023-04-01T04:47:02.014Z,98776.38
2023-04-01T04:49:07.456Z,98779.88
2023-04-01T04:51:18.126Z,98776.41
2023-04-01T04:53:23.639Z,98789.44
2023-04-01T04:55:33.262Z,98790.28
2023-04-01T04:57:57.872Z,98798.06
2023-04-01T05:00:01.692Z,98789.41
2023-04-01T05:02:21.540Z,98792.91
2023-04-01T05:04:30.641Z,98797.22
2023-04-01T05:06:37.782Z,98794.59
2023-04-01T05:08:46.518Z,98802.41
2023-04-01T05:10:56.360Z,98791.13
2023-04-01T05:13:00.133Z,98799.81
2023-04-01T05:15:03.869Z,98794.59
2023-04-01T05:17:11.049Z,98779.84
2023-04-01T05:19:14.747Z,98833.63
2023-04-01T05:21:18.239Z,98806.75
2023-04-01T05:23:22.889Z,98759.03
2023-04-01T05:25:26.654Z,98809.34
2023-04-01T05:27:31.364Z,98807.59
2023-04-01T05:29:35.994Z,98800.69
2023-04-01T05:31:42.969Z,98808.50
2023-04-01T05:33:46.369Z,98817.19
2023-04-01T05:35:49.754Z,98815.44
2023-04-01T05:37:53.252Z,98818.03
2023-04-01T05:39:59.546Z,98821.50
2023-04-01T05:42:03.154Z,98822.38
2023-04-01T05:44:08.009Z,98818.06
2023-04-01T05:46:17.006Z,98805.91
2023-04-01T05:48:30.051Z,98824.97
2023-04-01T05:50:33.482Z,98823.25
2023-04-01T05:52:37.413Z,98818.03
2023-04-01T05:54:41.482Z,98815.44
2023-04-01T05:56:47.533Z,98833.66
2023-04-01T05:58:55.010Z,98829.34
2023-04-01T06:01:10.104Z,98830.19
2023-04-01T06:03:16.391Z,98838.00
2023-04-01T06:05:22.036Z,98838.00
2023-04-01T06:07:25.692Z,98835.41
2023-04-01T06:09:31.817Z,98838.84
2023-04-01T06:11:44.345Z,98781.56
2023-04-01T06:14:06.504Z,98834.53
2023-04-01T06:16:24.211Z,98841.47
2023-04-01T06:18:55.063Z,98851.00
2023-04-01T06:21:09.322Z,98854.50
2023-04-01T06:23:28.450Z,98853.59
2023-04-01T06:25:51.473Z,98854.44
2023-04-01T06:28:09.714Z,98858.81
2023-04-01T06:30:32.464Z,98861.41
2023-04-01T06:33:01.336Z,98856.22
2023-04-01T06:35:46.038Z,98855.34
2023-04-01T06:38:12.876Z,98853.63
2023-04-01T06:40:42.002Z,98854.50
2023-04-01T06:43:02.027Z,98857.97
2023-04-01T06:45:37.810Z,98859.72
2023-04-01T06:48:16.051Z,98845.81
2023-04-01T06:50:44.907Z,98864.03
2023-04-01T06:53:14.658Z,98863.16
2023-04-01T06:55:41.925Z,98859.69
2023-04-01T06:58:22.838Z,98867.50
2023-04-01T07:00:32.104Z,98862.34
2023-04-01T07:02:41.498Z,98856.28
2023-04-01T07:04:50.735Z,98870.97
2023-04-01T07:06:57.948Z,98869.25
2023-04-01T07:09:06.368Z,98868.38
2023-04-01T07:11:33.519Z,98878.78
2023-04-01T07:14:14.432Z,98881.38
2023-04-01T07:16:22.360Z,98889.19
2023-04-01T07:18:34.838Z,98863.22
2023-04-01T07:20:42.823Z,98881.41
2023-04-01T07:22:48.245Z,98890.91
2023-04-01T07:25:05.286Z,98886.56
2023-04-01T07:27:11.943Z,98889.19
2023-04-01T07:29:17.593Z,98895.25
2023-04-01T07:31:43.380Z,98898.69
2023-04-01T07:33:55.290Z,98903.09
2023-04-01T07:36:06.888Z,98892.66
2023-04-01T07:38:21.213Z,98900.44
2023-04-01T07:40:34.098Z,98899.59
2023-04-01T07:42:52.034Z,98908.28
2023-04-01T07:45:06.018Z,98911.75
2023-04-01T07:47:42.495Z,98908.28
2023-04-01T07:49:56.312Z,98919.56
2023-04-01T07:52:07.271Z,98913.47
2023-04-01T07:54:23.941Z,98919.56
2023-04-01T07:56:35.213Z,98920.41
2023-04-01T07:58:47.779Z,98923.00
2023-04-01T08:01:16.446Z,98924.78
2023-04-01T08:03:38.077Z,98933.47
2023-04-01T08:05:52.797Z,98917.81
2023-04-01T08:08:08.055Z,98939.59
2023-04-01T08:10:52.550Z,98949.09
2023-04-01T08:13:22.879Z,98939.53
2023-04-01T08:15:53.164Z,98943.91
2023-04-01T08:18:18.547Z,98943.03
2023-04-01T08:20:30.850Z,98931.69
2023-04-01T08:22:42.700Z,98958.56
2023-04-01T08:25:00.868Z,98937.75
2023-04-01T08:27:12.754Z,98962.91
2023-04-01T08:29:21.973Z,98957.72
2023-04-01T08:31:32.141Z,98962.06
2023-04-01T08:33:35.941Z,98962.03
2023-04-01T08:35:51.716Z,98840.41
2023-04-01T08:37:58.248Z,98966.41
2023-04-01T08:40:24.980Z,98977.69
2023-04-01T08:42:52.304Z,98968.16
2023-04-01T08:45:18.221Z,98978.53
2023-04-01T08:47:53.215Z,98967.25
2023-04-01T08:50:24.137Z,98981.97
2023-04-01T08:52:38.651Z,98923.81
2023-04-01T08:54:57.049Z,98913.41
2023-04-01T08:57:28.196Z,98974.25
2023-04-01T09:00:06.385Z,98988.13
2023-04-01T09:02:51.992Z,98986.34
2023-04-01T09:05:33.222Z,98987.25
2023-04-01T09:07:46.287Z,98998.56
2023-04-01T09:10:10.354Z,98998.53
2023-04-01T09:12:52.279Z,98981.13
2023-04-01T09:15:27.560Z,99003.69
2023-04-01T09:17:52.642Z,98961.13
2023-04-01T09:20:19.226Z,98966.34
2023-04-01T09:22:37.709Z,99007.19
2023-04-01T09:25:04.086Z,99005.47
2023-04-01T09:27:16.791Z,99009.91
2023-04-01T09:29:39.440Z,99019.50
2023-04-01T09:32:16.209Z,99022.06
2023-04-01T09:34:56.718Z,99026.44
2023-04-01T09:37:20.357Z,99026.41
2023-04-01T09:39:38.323Z,99039.44
2023-04-01T09:42:05.458Z,99020.28
2023-04-01T09:44:21.019Z,99040.28
2023-04-01T09:46:56.379Z,99037.59
2023-04-01T09:49:43.197Z,99047.25
2023-04-01T09:51:57.445Z,99054.22
2023-04-01T09:54:13.549Z,99053.34
2023-04-01T09:56:40.291Z,99048.13
2023-04-01T09:59:17.781Z,99054.25
2023-04-01T10:02:15.764Z,99055.97
2023-04-01T10:05:02.242Z,99062.06
2023-04-01T10:07:37.337Z,99071.59
2023-04-01T10:10:17.454Z,99069.03
2023-04-01T10:12:52.093Z,99073.28
2023-04-01T10:15:34.910Z,99080.25
2023-04-01T10:17:58.625Z,99068.97
2023-04-01T10:20:21.380Z,99082.91
2023-04-01T10:22:52.382Z,99077.69
2023-04-01T10:25:21.056Z,99057.69
2023-04-01T10:27:46.104Z,99079.41
2023-04-01T10:30:59.865Z,99088.06
2023-04-01T10:33:40.171Z,99085.44
2023-04-01T10:36:34.558Z,99086.31
2023-04-01T10:39:10.893Z,99105.47
2023-04-01T10:41:59.269Z,99095.91
2023-04-01T10:44:35.378Z,99095.00
2023-04-01T10:47:25.450Z,99096.72
2023-04-01T10:49:57.895Z,99094.97
2023-04-01T10:52:41.702Z,99093.28
2023-04-01T10:55:37.489Z,99088.97
2023-04-01T10:58:28.856Z,99105.47
2023-04-01T11:01:38.992Z,99090.66
2023-04-01T11:04:48.520Z,99088.91
2023-04-01T11:07:32.297Z,99101.97
2023-04-01T11:10:08.038Z,99102.81
2023-04-01T11:13:08.275Z,99112.38
2023-04-01T11:15:50.757Z,99114.97
2023-04-01T11:18:31.846Z,99118.53
2023-04-01T11:21:02.609Z,99118.50
2023-04-01T11:23:28.303Z,99126.31
2023-04-01T11:25:45.408Z,99122.94
2023-04-01T11:28:35.466Z,99134.19
2023-04-01T11:30:56.632Z,99130.72
2023-04-01T11:33:05.130Z,99128.97
2023-04-01T11:35:53.831Z,99128.09
2023-04-01T11:38:03.136Z,99132.41
2023-04-01T11:40:34.405Z,99135.84
2023-04-01T11:43:01.289Z,99140.22
2023-04-01T11:45:48.871Z,99135.94
2023-04-01T11:48:36.616Z,99138.53
2023-04-01T11:50:59.373Z,99145.50
2023-04-01T11:53:33.426Z,99143.78
2023-04-01T11:55:50.536Z,99155.09
2023-04-01T11:58:25.346Z,99162.91
2023-04-01T12:00:59.438Z,99152.50
2023-04-01T12:03:20.496Z,99162.06
2023-04-01T12:05:40.060Z,99158.56
2023-04-01T12:07:57.737Z,99170.78
2023-04-01T12:10:13.134Z,99157.75
2023-04-01T12:12:29.360Z,99169.91
2023-04-01T12:14:44.282Z,99166.44
2023-04-01T12:17:00.633Z,99169.91
2023-04-01T12:19:13.902Z,99191.66
2023-04-01T12:21:28.527Z,99180.31
2023-04-01T12:23:53.825Z,99182.09
2023-04-01T12:26:28.378Z,99173.38
2023-04-01T12:28:46.509Z,99189.03
2023-04-01T12:31:12.610Z,99192.53
2023-04-01T12:33:42.813Z,99208.19
2023-04-01T12:35:58.624Z,99200.31
2023-04-01T12:38:20.397Z,99224.69
2023-04-01T12:40:40.277Z,99202.06
2023-04-01T12:42:58.031Z,99211.63
2023-04-01T12:45:24.994Z,99174.22
2023-04-01T12:48:02.280Z,99216.88
2023-04-01T12:50:21.729Z,99191.66
2023-04-01T12:52:34.100Z,99191.66
2023-04-01T12:55:07.260Z,99220.38
2023-04-01T12:57:26.538Z,99216.84
2023-04-01T12:59:44.716Z,99221.25
2023-04-01T13:02:02.464Z,99219.47
2023-04-01T13:04:33.512Z,99222.97
2023-04-01T13:06:52.525Z,99233.38
2023-04-01T13:09:05.449Z,99227.31
2023-04-01T13:11:15.399Z,99229.91
2023-04-01T13:13:43.516Z,99232.53
2023-04-01T13:15:54.821Z,99240.34
2023-04-01T13:18:13.006Z,99239.44
2023-04-01T13:20:25.453Z,99243.78
2023-04-01T13:22:37.118Z,99243.78
2023-04-01T13:24:48.364Z,99246.41
2023-04-01T13:26:58.803Z,99217.69
2023-04-01T13:29:08.831Z,99249.91
2023-04-01T13:31:26.097Z,99215.13
2023-04-01T13:33:40.784Z,99246.47
2023-04-01T13:35:50.593Z,99252.53
2023-04-01T13:38:10.916Z,99259.47
2023-04-01T13:40:34.418Z,99262.97
2023-04-01T13:42:46.891Z,99253.41
2023-04-01T13:44:55.496Z,99243.81
2023-04-01T13:47:14.571Z,99271.63
2023-04-01T13:49:48.728Z,99277.69
2023-04-01T13:52:11.839Z,99281.16
2023-04-01T13:54:39.165Z,99270.75
2023-04-01T13:56:51.019Z,99278.59
2023-04-01T13:59:12.226Z,99268.19
2023-04-01T14:01:23.432Z,99268.22
2023-04-01T14:03:34.492Z,99273.41
2023-04-01T14:06:04.567Z,99285.56
2023-04-01T14:08:19.550Z,99285.59
2023-04-01T14:10:30.135Z,99289.06
2023-04-01T14:12:42.319Z,99276.88
2023-04-01T14:15:02.777Z,99299.47
2023-04-01T14:17:19.866Z,99301.22
2023-04-01T14:19:32.748Z,99299.53
2023-04-01T14:21:43.804Z,99299.53
2023-04-01T14:24:24.103Z,99308.22
2023-04-01T14:26:47.473Z,99208.88
2023-04-01T14:29:02.130Z,99314.22
2023-04-01T14:31:25.722Z,99286.41
2023-04-01T14:33:39.968Z,99315.09
2023-04-01T14:35:53.223Z,99290.72
2023-04-01T14:38:53.291Z,99319.41
2023-04-01T14:41:02.464Z,99317.69
2023-04-01T14:43:24.359Z,99295.09
2023-04-01T14:45:47.307Z,99286.34
2023-04-01T14:47:54.965Z,99324.59
2023-04-01T14:50:08.519Z,99328.06
2023-04-01T14:52:18.202Z,99328.09
2023-04-01T14:54:34.270Z,99326.25
2023-04-01T14:56:39.559Z,99329.84
2023-04-01T14:58:46.777Z,99310.63
2023-04-01T15:00:58.010Z,99328.94
2023-04-01T15:03:10.172Z,99334.16
2023-04-01T15:05:26.918Z,99335.00
2023-04-01T15:07:56.544Z,99339.41
2023-04-01T15:10:09.304Z,99339.41
2023-04-01T15:12:26.179Z,99342.91
2023-04-01T15:14:51.683Z,99346.50
2023-04-01T15:17:07.364Z,99345.59
2023-04-01T15:19:23.631Z,99349.94
2023-04-01T15:21:44.761Z,99368.91
2023-04-01T15:24:01.998Z,99361.94
2023-04-01T15:26:24.154Z,99367.13
2023-04-01T15:28:37.157Z,99365.44
2023-04-01T15:30:50.204Z,99370.66
2023-04-01T15:33:09.857Z,99375.88
2023-04-01T15:35:27.147Z,99374.16
2023-04-01T15:37:41.803Z,99375.91
2023-04-01T15:39:56.774Z,99374.28
2023-04-01T15:42:19.262Z,99383.78
2023-04-01T15:44:48.221Z,99391.53
2023-04-01T15:46:52.292Z,99390.69
2023-04-01T15:49:06.963Z,99384.63
2023-04-01T15:51:18.949Z,99394.22
2023-04-01T15:53:39.438Z,99401.13
2023-04-01T15:55:50.336Z,99402.03
2023-04-01T15:58:18.203Z,99386.31
2023-04-01T16:00:28.202Z,99406.38
2023-04-01T16:02:37.831Z,99407.28
2023-04-01T16:04:56.291Z,99416.78
2023-04-01T16:07:12.096Z,99413.25
2023-04-01T16:09:47.459Z,99413.31
2023-04-01T16:11:59.157Z,99412.38
2023-04-01T16:14:18.482Z,99417.63
2023-04-01T16:16:33.374Z,99426.41
2023-04-01T16:18:59.390Z,99410.84
2023-04-01T16:21:06.834Z,99426.53
2023-04-01T16:23:20.670Z,99411.75
2023-04-01T16:25:36.035Z,99433.47
2023-04-01T16:27:47.451Z,99434.34
2023-04-01T16:29:58.413Z,99431.72
2023-04-01T16:32:20.108Z,99444.63
2023-04-01T16:34:32.540Z,99440.28
2023-04-01T16:36:39.883Z,99428.91
2023-04-01T16:38:51.253Z,99438.44
2023-04-01T16:41:09.237Z,99447.16
2023-04-01T16:43:19.186Z,99447.19
2023-04-01T16:45:35.410Z,99448.84
2023-04-01T16:47:47.349Z,99450.50
2023-04-01T16:49:55.861Z,99441.72
2023-04-01T16:52:15.010Z,99452.19
2023-04-01T16:54:30.264Z,99451.44
2023-04-01T16:56:41.852Z,99466.94
2023-04-01T16:59:03.477Z,99467.84
2023-04-01T17:01:14.916Z,99464.47
2023-04-01T17:03:23.760Z,99470.63
2023-04-01T17:05:42.840Z,99467.13
2023-04-01T17:08:02.826Z,99481.94
2023-04-01T17:10:24.675Z,99482.81
2023-04-01T17:12:37.266Z,99483.63
2023-04-01T17:14:49.609Z,99487.06
2023-04-01T17:17:03.563Z,99487.84
2023-04-01T17:19:17.474Z,99491.28
2023-04-01T17:21:26.167Z,99489.63
2023-04-01T17:23:36.310Z,99390.81
2023-04-01T17:26:05.421Z,99477.13
2023-04-01T17:28:22.183Z,99501.66
2023-04-01T17:30:37.746Z,99498.16
2023-04-01T17:32:54.310Z,99505.22
2023-04-01T17:35:08.506Z,99512.19
2023-04-01T17:37:25.543Z,99519.13
2023-04-01T17:39:41.979Z,99518.38
2023-04-01T17:41:53.330Z,99509.63
2023-04-01T17:44:05.420Z,99521.88
2023-04-01T17:46:29.199Z,99529.66
2023-04-01T17:48:47.207Z,99536.50
2023-04-01T17:51:04.129Z,99537.41
2023-04-01T17:53:20.686Z,99545.94
2023-04-01T17:55:49.563Z,99545.06
2023-04-01T17:57:58.008Z,99554.63
2023-04-01T18:00:09.715Z,99548.50
2023-04-01T18:02:28.027Z,99557.16
2023-04-01T18:04:48.655Z,99522.28
2023-04-01T18:07:09.839Z,99460.16
2023-04-01T18:09:26.599Z,99538.88
2023-04-01T18:11:44.316Z,99526.75
2023-04-01T18:14:17.183Z,99560.94
2023-04-01T18:16:43.910Z,99574.78
2023-04-01T18:18:59.610Z,99579.03
2023-04-01T18:21:11.483Z,99570.22
2023-04-01T18:23:26.471Z,99576.22
2023-04-01T18:25:36.272Z,99548.19
2023-04-01T18:27:42.266Z,99588.34
2023-04-01T18:29:53.266Z,99595.25
2023-04-01T18:32:10.314Z,99598.75
2023-04-01T18:34:21.248Z,99591.88
2023-04-01T18:36:36.385Z,99604.97
2023-04-01T18:38:47.768Z,99611.16
2023-04-01T18:40:55.434Z,99616.41
2023-04-01T18:43:11.118Z,99617.13
2023-04-01T18:45:22.767Z,99508.03
2023-04-01T18:47:38.840Z,99631.97
2023-04-01T18:49:48.159Z,99619.84
2023-04-01T18:51:58.766Z,99621.69
2023-04-01T18:54:07.016Z,99621.38
2023-04-01T18:56:14.814Z,99632.53
2023-04-01T18:58:26.380Z,99593.72
2023-04-01T19:00:38.118Z,99644.88
2023-04-01T19:02:47.029Z,99645.81
2023-04-01T19:05:02.410Z,99643.09
2023-04-01T19:07:41.469Z,99639.63
2023-04-01T19:09:49.188Z,99647.31
2023-04-01T19:12:14.080Z,99653.50
2023-04-01T19:14:27.053Z,99659.69
2023-04-01T19:16:44.926Z,99658.69
2023-04-01T19:19:07.756Z,99657.88
2023-04-01T19:21:16.324Z,99660.63
2023-04-01T19:23:52.301Z,99662.22
2023-04-01T19:25:57.690Z,99670.78
2023-04-01T19:28:09.509Z,99670.91
2023-04-01T19:30:26.566Z,99666.47
2023-04-01T19:32:42.345Z,99663.84
2023-04-01T19:34:55.335Z,99665.44
2023-04-01T19:37:04.236Z,99672.38
2023-04-01T19:39:25.915Z,99673.44
2023-04-01T19:41:37.935Z,99677.81
2023-04-01T19:43:53.011Z,99676.69
2023-04-01T19:46:08.489Z,99677.50
2023-04-01T19:48:30.252Z,99652.00
2023-04-01T19:50:40.470Z,99675.84
2023-04-01T19:52:43.944Z,99686.34
2023-04-01T19:54:59.200Z,99684.41
2023-04-01T19:57:15.087Z,99690.44
2023-04-01T19:59:24.961Z,99665.06
2023-04-01T20:01:44.861Z,99698.03
2023-04-01T20:03:56.287Z,99687.78
2023-04-01T20:06:11.319Z,99695.88
2023-04-01T20:08:21.007Z,99689.59
2023-04-01T20:10:36.080Z,99705.31
2023-04-01T20:12:47.006Z,99704.44
2023-04-01T20:14:52.917Z,99716.22
2023-04-01T20:17:09.680Z,99714.72
2023-04-01T20:19:14.229Z,99717.34
2023-04-01T20:21:32.092Z,99713.72
2023-04-01T20:23:43.779Z,99672.50
2023-04-01T20:25:53.707Z,99724.88
2023-04-01T20:28:00.904Z,99729.09
2023-04-01T20:30:29.191Z,99726.19
2023-04-01T20:33:09.528Z,99729.69
2023-04-01T20:35:31.484Z,99735.69
2023-04-01T20:37:42.474Z,99735.44
2023-04-01T20:40:15.569Z,99744.00
2023-04-01T20:42:29.566Z,99738.72
2023-04-01T20:44:43.548Z,99751.66
2023-04-01T20:46:55.089Z,99747.59
2023-04-01T20:49:19.087Z,99750.19
2023-04-01T20:51:27.274Z,99763.09
2023-04-01T20:53:37.981Z,99763.97
2023-04-01T20:56:16.689Z,99756.94
2023-04-01T20:58:30.910Z,99754.44
2023-04-01T21:00:42.228Z,99765.81
2023-04-01T21:02:54.976Z,99731.56
2023-04-01T21:05:37.106Z,99738.69
2023-04-01T21:07:47.606Z,99707.22
2023-04-01T21:10:07.769Z,99771.03
2023-04-01T21:12:25.524Z,99763.09
2023-04-01T21:14:59.358Z,99781.31
2023-04-01T21:17:10.531Z,99771.91
2023-04-01T21:19:33.096Z,99774.75
2023-04-01T21:21:52.876Z,99783.41
2023-04-01T21:24:30.416Z,99780.81
2023-04-01T21:26:49.948Z,99782.53
2023-04-01T21:29:10.844Z,99756.28
2023-04-01T21:31:29.401Z,99749.22
2023-04-01T21:33:45.760Z,99778.03
2023-04-01T21:36:00.492Z,99786.69
2023-04-01T21:38:29.943Z,99790.13
2023-04-01T21:41:06.447Z,99793.66
2023-04-01T21:43:34.297Z,99793.47
2023-04-01T21:45:54.271Z,99802.19
2023-04-01T21:48:29.132Z,99791.00
2023-04-01T21:50:47.617Z,99811.00
2023-04-01T21:53:10.327Z,99799.66
2023-04-01T21:55:43.355Z,99806.06
2023-04-01T21:58:22.584Z,99803.50
2023-04-01T22:00:27.748Z,99807.47
2023-04-01T22:03:26.610Z,99816.09
2023-04-01T22:05:38.333Z,99820.59
2023-04-01T22:07:51.472Z,99820.66
2023-04-01T22:10:05.013Z,99825.97
2023-04-01T22:12:15.967Z,99826.16
2023-04-01T22:14:27.260Z,99828.66
2023-04-01T22:16:38.172Z,99831.44
2023-04-01T22:18:48.198Z,99817.53
2023-04-01T22:21:06.041Z,99811.19
2023-04-01T22:23:28.235Z,99829.84
2023-04-01T22:25:37.722Z,99821.16
2023-04-01T22:27:48.565Z,99843.22
2023-04-01T22:30:02.894Z,99833.63
2023-04-01T22:32:10.484Z,99833.59
2023-04-01T22:34:21.972Z,99854.69
2023-04-01T22:36:35.905Z,99856.47
2023-04-01T22:38:56.874Z,99846.97
2023-04-01T22:41:07.567Z,99854.81
2023-04-01T22:43:14.681Z,99861.66
2023-04-01T22:45:32.525Z,99848.47
2023-04-01T22:47:44.646Z,99861.69
2023-04-01T22:49:53.727Z,99868.78
2023-04-01T22:52:05.725Z,99874.81
2023-04-01T22:54:17.542Z,99874.72
2023-04-01T22:56:26.849Z,99880.78
2023-04-01T22:58:36.602Z,99885.13
2023-04-01T23:00:45.482Z,99895.44
2023-04-01T23:03:02.179Z,99857.00
2023-04-01T23:05:11.746Z,99884.28
2023-04-01T23:07:47.635Z,99886.16
2023-04-01T23:09:52.494Z,99863.41
2023-04-01T23:11:59.786Z,99903.69
2023-04-01T23:14:29.882Z,99898.50
2023-04-01T23:16:41.252Z,99904.47
2023-04-01T23:18:52.828Z,99912.28
2023-04-01T23:21:06.399Z,99923.69
2023-04-01T23:23:33.188Z,99928.91
2023-04-01T23:25:47.827Z,99908.63
2023-04-01T23:27:58.390Z,99922.72
2023-04-01T23:30:01.960Z,99939.41
2023-04-01T23:32:06.505Z,99954.25
2023-04-01T23:34:32.081Z,99956.88
2023-04-01T23:36:41.305Z,99956.88
2023-04-01T23:38:50.900Z,99962.00
2023-04-01T23:40:56.600Z,99971.59
2023-04-01T23:43:00.317Z,99977.66
2023-04-01T23:45:06.926Z,99970.63
2023-04-01T23:47:17.636Z,99984.63
2023-04-01T23:49:26.078Z,99985.53
2023-04-01T23:51:31.491Z,99990.72
2023-04-01T23:53:36.160Z,100002.81
2023-04-01T23:55:43.455Z,100006.28
2023-04-01T23:58:09.388Z,100003.63
